sensor_id;sensor_type;location;lat;lon;timestamp;P1;durP1;ratioP1;P2;durP2;ratioP2
71106;SDS011;58763;47.982;11.516;2023-04-12T00:00:32;3.80;;;1.38;;
71106;SDS011;58763;47.982;11.516;2023-04-12T00:02:58;4.03;;;1.35;;
71106;SDS011;58763;47.982;11.516;2023-04-12T00:05:27;5.78;;;1.60;;
71106;SDS011;58763;47.982;11.516;2023-04-12T00:07:53;3.38;;;1.50;;
71106;SDS011;58763;47.982;11.516;2023-04-12T00:10:20;3.80;;;1.45;;
71106;SDS011;58763;47.982;11.516;2023-04-12T00:12:45;2.75;;;1.20;;
71106;SDS011;58763;47.982;11.516;2023-04-12T00:15:11;5.15;;;1.60;;
71106;SDS011;58763;47.982;11.516;2023-04-12T00:17:37;4.47;;;1.38;;
71106;SDS011;58763;47.982;11.516;2023-04-12T00:20:04;5.03;;;1.48;;
71106;SDS011;58763;47.982;11.516;2023-04-12T00:22:37;2.90;;;1.20;;
71106;SDS011;58763;47.982;11.516;2023-04-12T00:25:09;2.90;;;1.30;;
71106;SDS011;58763;47.982;11.516;2023-04-12T00:27:34;4.53;;;1.40;;
71106;SDS011;58763;47.982;11.516;2023-04-12T00:30:00;3.67;;;1.17;;
71106;SDS011;58763;47.982;11.516;2023-04-12T00:32:26;2.75;;;1.30;;
71106;SDS011;58763;47.982;11.516;2023-04-12T00:34:51;5.55;;;1.33;;
71106;SDS011;58763;47.982;11.516;2023-04-12T00:37:17;3.60;;;1.33;;
71106;SDS011;58763;47.982;11.516;2023-04-12T00:39:42;3.53;;;1.23;;
71106;SDS011;58763;47.982;11.516;2023-04-12T00:42:08;4.93;;;1.55;;
71106;SDS011;58763;47.982;11.516;2023-04-12T00:44:33;4.05;;;1.40;;
71106;SDS011;58763;47.982;11.516;2023-04-12T00:46:59;4.50;;;1.65;;
71106;SDS011;58763;47.982;11.516;2023-04-12T00:49:27;6.13;;;1.58;;
71106;SDS011;58763;47.982;11.516;2023-04-12T00:52:03;4.38;;;1.48;;
71106;SDS011;58763;47.982;11.516;2023-04-12T00:54:32;4.05;;;1.52;;
71106;SDS011;58763;47.982;11.516;2023-04-12T00:57:01;5.22;;;1.15;;
71106;SDS011;58763;47.982;11.516;2023-04-12T00:59:27;3.00;;;1.30;;
71106;SDS011;58763;47.982;11.516;2023-04-12T01:01:55;3.72;;;1.30;;
71106;SDS011;58763;47.982;11.516;2023-04-12T01:04:22;4.32;;;1.30;;
71106;SDS011;58763;47.982;11.516;2023-04-12T01:17:48;3.15;;;1.05;;
71106;SDS011;58763;47.982;11.516;2023-04-12T01:20:14;3.08;;;0.98;;
71106;SDS011;58763;47.982;11.516;2023-04-12T01:27:56;4.82;;;1.33;;
71106;SDS011;58763;47.982;11.516;2023-04-12T01:30:25;3.33;;;0.95;;
71106;SDS011;58763;47.982;11.516;2023-04-12T01:32:53;3.42;;;1.35;;
71106;SDS011;58763;47.982;11.516;2023-04-12T01:35:21;3.90;;;1.42;;
71106;SDS011;58763;47.982;11.516;2023-04-12T01:37:50;3.42;;;1.40;;
71106;SDS011;58763;47.982;11.516;2023-04-12T01:40:16;3.60;;;1.20;;
71106;SDS011;58763;47.982;11.516;2023-04-12T01:42:42;5.40;;;1.20;;
71106;SDS011;58763;47.982;11.516;2023-04-12T01:45:08;3.85;;;1.23;;
71106;SDS011;58763;47.982;11.516;2023-04-12T01:47:33;3.25;;;0.95;;
71106;SDS011;58763;47.982;11.516;2023-04-12T01:52:32;3.13;;;1.10;;
71106;SDS011;58763;47.982;11.516;2023-04-12T01:55:03;3.70;;;1.45;;
71106;SDS011;58763;47.982;11.516;2023-04-12T01:57:30;3.72;;;1.30;;
71106;SDS011;58763;47.982;11.516;2023-04-12T01:59:57;3.70;;;1.45;;
71106;SDS011;58763;47.982;11.516;2023-04-12T02:02:26;3.60;;;1.50;;
71106;SDS011;58763;47.982;11.516;2023-04-12T02:04:52;3.30;;;1.30;;
71106;SDS011;58763;47.982;11.516;2023-04-12T02:07:19;4.30;;;1.40;;
71106;SDS011;58763;47.982;11.516;2023-04-12T02:09:45;3.42;;;1.27;;
71106;SDS011;58763;47.982;11.516;2023-04-12T02:12:11;3.50;;;1.40;;
71106;SDS011;58763;47.982;11.516;2023-04-12T02:14:37;4.28;;;1.60;;
71106;SDS011;58763;47.982;11.516;2023-04-12T02:17:03;2.83;;;1.20;;
71106;SDS011;58763;47.982;11.516;2023-04-12T02:19:29;3.63;;;1.48;;
71106;SDS011;58763;47.982;11.516;2023-04-12T02:21:55;3.05;;;1.33;;
71106;SDS011;58763;47.982;11.516;2023-04-12T02:24:20;3.55;;;1.10;;
71106;SDS011;58763;47.982;11.516;2023-04-12T02:26:46;3.25;;;1.30;;
71106;SDS011;58763;47.982;11.516;2023-04-12T02:29:13;3.08;;;1.10;;
71106;SDS011;58763;47.982;11.516;2023-04-12T02:31:39;2.50;;;0.95;;
71106;SDS011;58763;47.982;11.516;2023-04-12T02:34:05;3.13;;;1.30;;
71106;SDS011;58763;47.982;11.516;2023-04-12T02:36:31;2.38;;;1.10;;
71106;SDS011;58763;47.982;11.516;2023-04-12T02:38:57;3.33;;;1.40;;
71106;SDS011;58763;47.982;11.516;2023-04-12T02:41:23;3.03;;;1.23;;
71106;SDS011;58763;47.982;11.516;2023-04-12T02:43:49;4.05;;;1.40;;
71106;SDS011;58763;47.982;11.516;2023-04-12T02:46:17;3.15;;;1.17;;
71106;SDS011;58763;47.982;11.516;2023-04-12T02:48:46;2.92;;;1.15;;
71106;SDS011;58763;47.982;11.516;2023-04-12T02:51:11;3.90;;;1.50;;
71106;SDS011;58763;47.982;11.516;2023-04-12T02:53:37;3.03;;;1.13;;
71106;SDS011;58763;47.982;11.516;2023-04-12T02:56:06;3.50;;;1.50;;
71106;SDS011;58763;47.982;11.516;2023-04-12T02:58:32;3.85;;;1.17;;
71106;SDS011;58763;47.982;11.516;2023-04-12T03:00:59;4.85;;;1.50;;
71106;SDS011;58763;47.982;11.516;2023-04-12T03:03:25;3.92;;;1.50;;
71106;SDS011;58763;47.982;11.516;2023-04-12T03:05:52;4.68;;;1.50;;
71106;SDS011;58763;47.982;11.516;2023-04-12T03:08:19;3.67;;;1.40;;
71106;SDS011;58763;47.982;11.516;2023-04-12T03:10:45;4.13;;;1.67;;
71106;SDS011;58763;47.982;11.516;2023-04-12T03:13:11;3.55;;;1.50;;
71106;SDS011;58763;47.982;11.516;2023-04-12T03:15:36;5.35;;;1.52;;
71106;SDS011;58763;47.982;11.516;2023-04-12T03:18:02;3.17;;;1.50;;
71106;SDS011;58763;47.982;11.516;2023-04-12T03:20:27;4.68;;;1.58;;
71106;SDS011;58763;47.982;11.516;2023-04-12T03:22:53;4.88;;;1.83;;
71106;SDS011;58763;47.982;11.516;2023-04-12T03:25:19;4.30;;;1.58;;
71106;SDS011;58763;47.982;11.516;2023-04-12T03:27:45;4.10;;;1.70;;
71106;SDS011;58763;47.982;11.516;2023-04-12T03:30:11;4.35;;;1.60;;
71106;SDS011;58763;47.982;11.516;2023-04-12T03:32:37;5.07;;;1.45;;
71106;SDS011;58763;47.982;11.516;2023-04-12T03:35:03;5.20;;;2.10;;
71106;SDS011;58763;47.982;11.516;2023-04-12T03:37:32;5.22;;;1.80;;
71106;SDS011;58763;47.982;11.516;2023-04-12T03:39:58;4.57;;;1.85;;
71106;SDS011;58763;47.982;11.516;2023-04-12T03:42:23;6.00;;;1.98;;
71106;SDS011;58763;47.982;11.516;2023-04-12T03:44:49;5.60;;;2.17;;
71106;SDS011;58763;47.982;11.516;2023-04-12T03:47:16;4.30;;;1.80;;
71106;SDS011;58763;47.982;11.516;2023-04-12T03:49:42;4.97;;;1.90;;
71106;SDS011;58763;47.982;11.516;2023-04-12T03:52:08;4.57;;;1.65;;
71106;SDS011;58763;47.982;11.516;2023-04-12T03:54:33;4.53;;;1.77;;
71106;SDS011;58763;47.982;11.516;2023-04-12T03:56:59;7.10;;;1.70;;
71106;SDS011;58763;47.982;11.516;2023-04-12T03:59:26;9.18;;;2.10;;
71106;SDS011;58763;47.982;11.516;2023-04-12T04:01:53;6.50;;;1.73;;
71106;SDS011;58763;47.982;11.516;2023-04-12T04:04:19;4.35;;;1.85;;
71106;SDS011;58763;47.982;11.516;2023-04-12T04:06:45;5.05;;;1.65;;
71106;SDS011;58763;47.982;11.516;2023-04-12T04:09:11;3.83;;;1.70;;
71106;SDS011;58763;47.982;11.516;2023-04-12T04:11:36;4.57;;;1.60;;
71106;SDS011;58763;47.982;11.516;2023-04-12T04:14:02;4.35;;;1.75;;
71106;SDS011;58763;47.982;11.516;2023-04-12T04:16:28;5.57;;;1.80;;
71106;SDS011;58763;47.982;11.516;2023-04-12T04:18:55;5.32;;;2.10;;
71106;SDS011;58763;47.982;11.516;2023-04-12T04:21:20;5.40;;;2.00;;
71106;SDS011;58763;47.982;11.516;2023-04-12T04:23:46;4.63;;;1.95;;
71106;SDS011;58763;47.982;11.516;2023-04-12T04:26:12;5.05;;;2.10;;
71106;SDS011;58763;47.982;11.516;2023-04-12T04:28:40;3.60;;;1.88;;
71106;SDS011;58763;47.982;11.516;2023-04-12T04:31:09;6.20;;;2.17;;
71106;SDS011;58763;47.982;11.516;2023-04-12T04:33:36;5.20;;;2.20;;
71106;SDS011;58763;47.982;11.516;2023-04-12T04:36:03;4.53;;;2.03;;
71106;SDS011;58763;47.982;11.516;2023-04-12T04:38:29;5.13;;;2.20;;
71106;SDS011;58763;47.982;11.516;2023-04-12T04:41:00;3.85;;;2.20;;
71106;SDS011;58763;47.982;11.516;2023-04-12T04:43:29;4.20;;;2.00;;
71106;SDS011;58763;47.982;11.516;2023-04-12T04:45:57;4.15;;;2.20;;
71106;SDS011;58763;47.982;11.516;2023-04-12T04:48:23;4.93;;;2.30;;
71106;SDS011;58763;47.982;11.516;2023-04-12T04:50:49;4.28;;;2.20;;
71106;SDS011;58763;47.982;11.516;2023-04-12T04:53:17;6.95;;;2.50;;
71106;SDS011;58763;47.982;11.516;2023-04-12T04:55:45;5.40;;;2.22;;
71106;SDS011;58763;47.982;11.516;2023-04-12T04:58:12;3.55;;;1.83;;
71106;SDS011;58763;47.982;11.516;2023-04-12T05:00:38;4.50;;;1.98;;
71106;SDS011;58763;47.982;11.516;2023-04-12T05:03:03;5.10;;;1.80;;
71106;SDS011;58763;47.982;11.516;2023-04-12T05:05:29;4.25;;;1.50;;
71106;SDS011;58763;47.982;11.516;2023-04-12T05:07:54;4.25;;;1.73;;
71106;SDS011;58763;47.982;11.516;2023-04-12T05:10:21;4.53;;;1.50;;
71106;SDS011;58763;47.982;11.516;2023-04-12T05:12:47;4.30;;;1.48;;
71106;SDS011;58763;47.982;11.516;2023-04-12T05:15:12;4.35;;;1.83;;
71106;SDS011;58763;47.982;11.516;2023-04-12T05:17:38;5.35;;;1.83;;
71106;SDS011;58763;47.982;11.516;2023-04-12T05:20:03;4.00;;;1.85;;
71106;SDS011;58763;47.982;11.516;2023-04-12T05:22:32;5.28;;;1.63;;
71106;SDS011;58763;47.982;11.516;2023-04-12T05:24:57;5.43;;;1.98;;
71106;SDS011;58763;47.982;11.516;2023-04-12T05:27:23;5.43;;;2.40;;
71106;SDS011;58763;47.982;11.516;2023-04-12T05:29:52;4.63;;;2.20;;
71106;SDS011;58763;47.982;11.516;2023-04-12T05:32:18;6.15;;;1.75;;
71106;SDS011;58763;47.982;11.516;2023-04-12T05:34:44;4.00;;;1.52;;
71106;SDS011;58763;47.982;11.516;2023-04-12T05:37:09;4.30;;;1.23;;
71106;SDS011;58763;47.982;11.516;2023-04-12T05:39:35;4.05;;;1.55;;
71106;SDS011;58763;47.982;11.516;2023-04-12T05:42:01;4.07;;;1.63;;
71106;SDS011;58763;47.982;11.516;2023-04-12T05:44:26;4.68;;;1.70;;
71106;SDS011;58763;47.982;11.516;2023-04-12T05:46:52;4.47;;;1.60;;
71106;SDS011;58763;47.982;11.516;2023-04-12T05:49:17;5.57;;;1.73;;
71106;SDS011;58763;47.982;11.516;2023-04-12T05:51:43;5.53;;;1.95;;
71106;SDS011;58763;47.982;11.516;2023-04-12T05:54:08;4.60;;;1.80;;
71106;SDS011;58763;47.982;11.516;2023-04-12T05:56:34;5.45;;;1.85;;
71106;SDS011;58763;47.982;11.516;2023-04-12T05:59:00;5.57;;;2.97;;
71106;SDS011;58763;47.982;11.516;2023-04-12T06:01:27;5.40;;;2.55;;
71106;SDS011;58763;47.982;11.516;2023-04-12T06:03:56;6.53;;;2.75;;
71106;SDS011;58763;47.982;11.516;2023-04-12T06:06:21;6.10;;;2.22;;
71106;SDS011;58763;47.982;11.516;2023-04-12T06:08:47;4.95;;;2.58;;
71106;SDS011;58763;47.982;11.516;2023-04-12T06:11:12;5.22;;;1.77;;
71106;SDS011;58763;47.982;11.516;2023-04-12T06:13:38;5.60;;;2.00;;
71106;SDS011;58763;47.982;11.516;2023-04-12T06:16:04;5.20;;;2.35;;
71106;SDS011;58763;47.982;11.516;2023-04-12T06:18:30;5.25;;;1.45;;
71106;SDS011;58763;47.982;11.516;2023-04-12T06:20:56;3.85;;;1.20;;
71106;SDS011;58763;47.982;11.516;2023-04-12T06:23:21;5.15;;;1.90;;
71106;SDS011;58763;47.982;11.516;2023-04-12T06:25:47;4.43;;;1.80;;
71106;SDS011;58763;47.982;11.516;2023-04-12T06:28:13;5.90;;;3.22;;
71106;SDS011;58763;47.982;11.516;2023-04-12T06:30:38;4.13;;;1.75;;
71106;SDS011;58763;47.982;11.516;2023-04-12T06:33:04;4.38;;;1.33;;
71106;SDS011;58763;47.982;11.516;2023-04-12T06:35:29;3.85;;;1.55;;
71106;SDS011;58763;47.982;11.516;2023-04-12T06:37:54;4.53;;;1.95;;
71106;SDS011;58763;47.982;11.516;2023-04-12T06:40:20;4.88;;;2.67;;
71106;SDS011;58763;47.982;11.516;2023-04-12T06:42:45;4.53;;;2.25;;
71106;SDS011;58763;47.982;11.516;2023-04-12T06:45:11;5.20;;;2.90;;
71106;SDS011;58763;47.982;11.516;2023-04-12T06:47:36;4.00;;;2.00;;
71106;SDS011;58763;47.982;11.516;2023-04-12T06:50:02;6.45;;;2.38;;
71106;SDS011;58763;47.982;11.516;2023-04-12T06:52:28;5.82;;;3.10;;
71106;SDS011;58763;47.982;11.516;2023-04-12T06:54:54;8.60;;;3.85;;
71106;SDS011;58763;47.982;11.516;2023-04-12T06:57:20;7.10;;;2.95;;
71106;SDS011;58763;47.982;11.516;2023-04-12T06:59:45;5.35;;;2.40;;
71106;SDS011;58763;47.982;11.516;2023-04-12T07:02:11;5.10;;;3.05;;
71106;SDS011;58763;47.982;11.516;2023-04-12T07:04:36;5.55;;;2.60;;
71106;SDS011;58763;47.982;11.516;2023-04-12T07:07:02;5.65;;;2.40;;
71106;SDS011;58763;47.982;11.516;2023-04-12T07:09:29;3.92;;;1.75;;
71106;SDS011;58763;47.982;11.516;2023-04-12T07:11:56;5.00;;;2.03;;
71106;SDS011;58763;47.982;11.516;2023-04-12T07:14:22;3.92;;;1.60;;
71106;SDS011;58763;47.982;11.516;2023-04-12T07:16:47;3.75;;;1.40;;
71106;SDS011;58763;47.982;11.516;2023-04-12T07:19:13;4.75;;;1.40;;
71106;SDS011;58763;47.982;11.516;2023-04-12T07:21:38;3.80;;;1.50;;
71106;SDS011;58763;47.982;11.516;2023-04-12T07:24:04;4.57;;;1.50;;
71106;SDS011;58763;47.982;11.516;2023-04-12T07:26:30;4.60;;;1.38;;
71106;SDS011;58763;47.982;11.516;2023-04-12T07:28:56;3.17;;;1.30;;
71106;SDS011;58763;47.982;11.516;2023-04-12T07:31:21;3.97;;;1.40;;
71106;SDS011;58763;47.982;11.516;2023-04-12T07:33:47;3.78;;;1.33;;
71106;SDS011;58763;47.982;11.516;2023-04-12T07:36:13;5.13;;;2.00;;
71106;SDS011;58763;47.982;11.516;2023-04-12T07:38:40;3.65;;;1.27;;
71106;SDS011;58763;47.982;11.516;2023-04-12T07:41:06;5.40;;;1.40;;
71106;SDS011;58763;47.982;11.516;2023-04-12T07:43:32;3.13;;;1.33;;
71106;SDS011;58763;47.982;11.516;2023-04-12T07:45:57;3.65;;;1.20;;
71106;SDS011;58763;47.982;11.516;2023-04-12T07:48:23;2.90;;;1.25;;
71106;SDS011;58763;47.982;11.516;2023-04-12T07:50:49;3.75;;;1.30;;
71106;SDS011;58763;47.982;11.516;2023-04-12T07:55:44;3.17;;;1.20;;
71106;SDS011;58763;47.982;11.516;2023-04-12T07:58:10;3.38;;;1.10;;
71106;SDS011;58763;47.982;11.516;2023-04-12T08:00:35;3.20;;;1.30;;
71106;SDS011;58763;47.982;11.516;2023-04-12T08:03:01;2.80;;;1.10;;
71106;SDS011;58763;47.982;11.516;2023-04-12T08:05:26;3.17;;;1.00;;
71106;SDS011;58763;47.982;11.516;2023-04-12T08:07:51;3.58;;;1.05;;
71106;SDS011;58763;47.982;11.516;2023-04-12T08:10:17;4.30;;;1.20;;
71106;SDS011;58763;47.982;11.516;2023-04-12T08:12:42;3.88;;;1.30;;
71106;SDS011;58763;47.982;11.516;2023-04-12T08:15:08;4.63;;;1.30;;
71106;SDS011;58763;47.982;11.516;2023-04-12T08:17:33;4.25;;;1.30;;
71106;SDS011;58763;47.982;11.516;2023-04-12T08:19:59;3.20;;;1.00;;
71106;SDS011;58763;47.982;11.516;2023-04-12T08:22:25;3.67;;;1.08;;
71106;SDS011;58763;47.982;11.516;2023-04-12T08:24:51;3.17;;;1.17;;
71106;SDS011;58763;47.982;11.516;2023-04-12T08:27:16;4.53;;;1.30;;
71106;SDS011;58763;47.982;11.516;2023-04-12T08:29:42;5.47;;;2.47;;
71106;SDS011;58763;47.982;11.516;2023-04-12T08:32:09;3.00;;;1.40;;
71106;SDS011;58763;47.982;11.516;2023-04-12T08:34:36;7.32;;;2.50;;
71106;SDS011;58763;47.982;11.516;2023-04-12T08:37:02;8.85;;;4.15;;
71106;SDS011;58763;47.982;11.516;2023-04-12T08:39:29;6.38;;;2.70;;
71106;SDS011;58763;47.982;11.516;2023-04-12T08:41:55;5.97;;;2.63;;
71106;SDS011;58763;47.982;11.516;2023-04-12T08:44:34;16.83;;;6.63;;
71106;SDS011;58763;47.982;11.516;2023-04-12T08:47:01;17.70;;;8.13;;
71106;SDS011;58763;47.982;11.516;2023-04-12T08:49:29;5.80;;;2.28;;
71106;SDS011;58763;47.982;11.516;2023-04-12T08:51:57;3.75;;;1.80;;
71106;SDS011;58763;47.982;11.516;2023-04-12T08:54:25;3.08;;;1.45;;
71106;SDS011;58763;47.982;11.516;2023-04-12T08:56:52;3.53;;;1.60;;
71106;SDS011;58763;47.982;11.516;2023-04-12T08:59:20;3.95;;;1.95;;
71106;SDS011;58763;47.982;11.516;2023-04-12T09:01:46;3.70;;;1.60;;
71106;SDS011;58763;47.982;11.516;2023-04-12T09:04:12;3.22;;;1.42;;
71106;SDS011;58763;47.982;11.516;2023-04-12T09:06:38;3.38;;;1.30;;
71106;SDS011;58763;47.982;11.516;2023-04-12T09:09:03;2.75;;;0.98;;
71106;SDS011;58763;47.982;11.516;2023-04-12T09:11:30;2.92;;;1.30;;
71106;SDS011;58763;47.982;11.516;2023-04-12T09:13:56;3.60;;;1.15;;
71106;SDS011;58763;47.982;11.516;2023-04-12T09:16:38;2.95;;;1.10;;
71106;SDS011;58763;47.982;11.516;2023-04-12T09:19:05;2.38;;;1.00;;
71106;SDS011;58763;47.982;11.516;2023-04-12T09:21:31;5.25;;;2.58;;
71106;SDS011;58763;47.982;11.516;2023-04-12T09:24:04;4.75;;;2.40;;
71106;SDS011;58763;47.982;11.516;2023-04-12T09:26:35;3.05;;;1.40;;
71106;SDS011;58763;47.982;11.516;2023-04-12T09:29:02;4.25;;;1.80;;
71106;SDS011;58763;47.982;11.516;2023-04-12T09:31:28;5.13;;;1.50;;
71106;SDS011;58763;47.982;11.516;2023-04-12T09:34:27;3.70;;;1.13;;
71106;SDS011;58763;47.982;11.516;2023-04-12T09:36:46;2.33;;;0.93;;
71106;SDS011;58763;47.982;11.516;2023-04-12T09:39:11;23.13;;;7.57;;
71106;SDS011;58763;47.982;11.516;2023-04-12T09:41:38;6.65;;;2.40;;
71106;SDS011;58763;47.982;11.516;2023-04-12T09:44:04;3.15;;;1.10;;
71106;SDS011;58763;47.982;11.516;2023-04-12T09:46:30;3.00;;;1.23;;
71106;SDS011;58763;47.982;11.516;2023-04-12T09:48:58;3.33;;;1.33;;
71106;SDS011;58763;47.982;11.516;2023-04-12T09:51:27;4.93;;;1.90;;
71106;SDS011;58763;47.982;11.516;2023-04-12T09:53:59;4.45;;;1.98;;
71106;SDS011;58763;47.982;11.516;2023-04-12T09:56:29;4.18;;;1.98;;
71106;SDS011;58763;47.982;11.516;2023-04-12T09:58:59;3.13;;;1.10;;
71106;SDS011;58763;47.982;11.516;2023-04-12T10:01:29;3.55;;;1.10;;
71106;SDS011;58763;47.982;11.516;2023-04-12T10:04:04;5.22;;;2.28;;
71106;SDS011;58763;47.982;11.516;2023-04-12T10:06:31;2.72;;;1.27;;
71106;SDS011;58763;47.982;11.516;2023-04-12T10:08:57;2.38;;;1.05;;
71106;SDS011;58763;47.982;11.516;2023-04-12T10:11:25;8.68;;;3.80;;
71106;SDS011;58763;47.982;11.516;2023-04-12T10:13:51;4.95;;;2.45;;
71106;SDS011;58763;47.982;11.516;2023-04-12T10:16:18;2.88;;;1.30;;
71106;SDS011;58763;47.982;11.516;2023-04-12T10:18:47;2.80;;;0.80;;
71106;SDS011;58763;47.982;11.516;2023-04-12T10:21:14;3.13;;;0.90;;
71106;SDS011;58763;47.982;11.516;2023-04-12T10:23:42;2.47;;;0.90;;
71106;SDS011;58763;47.982;11.516;2023-04-12T10:26:09;1.50;;;0.57;;
71106;SDS011;58763;47.982;11.516;2023-04-12T10:28:35;2.03;;;0.80;;
71106;SDS011;58763;47.982;11.516;2023-04-12T10:31:25;1.73;;;0.70;;
71106;SDS011;58763;47.982;11.516;2023-04-12T10:33:53;2.47;;;0.70;;
71106;SDS011;58763;47.982;11.516;2023-04-12T10:36:19;3.95;;;0.95;;
71106;SDS011;58763;47.982;11.516;2023-04-12T10:39:17;2.28;;;0.70;;
71106;SDS011;58763;47.982;11.516;2023-04-12T10:44:40;1.88;;;0.70;;
71106;SDS011;58763;47.982;11.516;2023-04-12T10:47:07;2.38;;;0.80;;
71106;SDS011;58763;47.982;11.516;2023-04-12T10:49:33;2.75;;;0.75;;
71106;SDS011;58763;47.982;11.516;2023-04-12T10:56:51;1.60;;;0.63;;
71106;SDS011;58763;47.982;11.516;2023-04-12T10:59:16;1.77;;;0.70;;
71106;SDS011;58763;47.982;11.516;2023-04-12T11:04:34;2.83;;;1.00;;
71106;SDS011;58763;47.982;11.516;2023-04-12T11:07:01;3.28;;;0.98;;
71106;SDS011;58763;47.982;11.516;2023-04-12T11:14:32;2.67;;;1.00;;
71106;SDS011;58763;47.982;11.516;2023-04-12T11:19:41;2.30;;;0.90;;
71106;SDS011;58763;47.982;11.516;2023-04-12T11:22:09;4.03;;;1.50;;
71106;SDS011;58763;47.982;11.516;2023-04-12T11:27:06;2.63;;;1.13;;
71106;SDS011;58763;47.982;11.516;2023-04-12T11:29:32;2.00;;;1.08;;
71106;SDS011;58763;47.982;11.516;2023-04-12T11:31:58;2.70;;;1.10;;
71106;SDS011;58763;47.982;11.516;2023-04-12T11:34:30;2.30;;;0.90;;
71106;SDS011;58763;47.982;11.516;2023-04-12T11:36:56;2.63;;;1.10;;
71106;SDS011;58763;47.982;11.516;2023-04-12T11:39:22;1.75;;;0.50;;
71106;SDS011;58763;47.982;11.516;2023-04-12T11:41:51;1.73;;;0.70;;
71106;SDS011;58763;47.982;11.516;2023-04-12T11:44:16;1.48;;;0.65;;
71106;SDS011;58763;47.982;11.516;2023-04-12T11:46:46;2.40;;;0.82;;
71106;SDS011;58763;47.982;11.516;2023-04-12T11:49:16;2.25;;;0.82;;
71106;SDS011;58763;47.982;11.516;2023-04-12T11:51:44;2.53;;;1.10;;
71106;SDS011;58763;47.982;11.516;2023-04-12T11:54:10;1.73;;;0.65;;
71106;SDS011;58763;47.982;11.516;2023-04-12T11:56:40;1.80;;;0.80;;
71106;SDS011;58763;47.982;11.516;2023-04-12T11:59:06;2.70;;;0.60;;
71106;SDS011;58763;47.982;11.516;2023-04-12T12:01:33;1.90;;;0.60;;
71106;SDS011;58763;47.982;11.516;2023-04-12T12:03:59;1.42;;;0.55;;
71106;SDS011;58763;47.982;11.516;2023-04-12T12:06:25;2.72;;;0.93;;
71106;SDS011;58763;47.982;11.516;2023-04-12T12:08:52;2.78;;;1.20;;
71106;SDS011;58763;47.982;11.516;2023-04-12T12:11:19;2.75;;;0.95;;
71106;SDS011;58763;47.982;11.516;2023-04-12T12:16:15;3.55;;;1.40;;
71106;SDS011;58763;47.982;11.516;2023-04-12T12:18:42;2.67;;;1.13;;
71106;SDS011;58763;47.982;11.516;2023-04-12T12:21:08;1.95;;;0.80;;
71106;SDS011;58763;47.982;11.516;2023-04-12T12:23:34;2.33;;;0.77;;
71106;SDS011;58763;47.982;11.516;2023-04-12T12:26:01;2.00;;;0.60;;
71106;SDS011;58763;47.982;11.516;2023-04-12T12:28:36;2.72;;;0.82;;
71106;SDS011;58763;47.982;11.516;2023-04-12T12:31:10;2.10;;;0.70;;
71106;SDS011;58763;47.982;11.516;2023-04-12T12:33:36;2.75;;;0.75;;
71106;SDS011;58763;47.982;11.516;2023-04-12T12:36:05;1.38;;;0.40;;
71106;SDS011;58763;47.982;11.516;2023-04-12T12:41:17;1.05;;;0.32;;
71106;SDS011;58763;47.982;11.516;2023-04-12T12:43:44;1.52;;;0.40;;
71106;SDS011;58763;47.982;11.516;2023-04-12T12:46:13;1.42;;;0.40;;
71106;SDS011;58763;47.982;11.516;2023-04-12T12:48:40;1.67;;;0.40;;
71106;SDS011;58763;47.982;11.516;2023-04-12T12:51:09;1.73;;;0.45;;
71106;SDS011;58763;47.982;11.516;2023-04-12T12:53:36;1.45;;;0.45;;
71106;SDS011;58763;47.982;11.516;2023-04-12T12:56:06;1.00;;;0.30;;
71106;SDS011;58763;47.982;11.516;2023-04-12T12:58:34;1.90;;;0.50;;
71106;SDS011;58763;47.982;11.516;2023-04-12T13:01:00;1.45;;;0.40;;
71106;SDS011;58763;47.982;11.516;2023-04-12T13:03:25;1.75;;;0.47;;
71106;SDS011;58763;47.982;11.516;2023-04-12T13:05:50;2.25;;;0.60;;
71106;SDS011;58763;47.982;11.516;2023-04-12T13:08:16;2.25;;;0.50;;
71106;SDS011;58763;47.982;11.516;2023-04-12T13:10:42;2.08;;;0.40;;
71106;SDS011;58763;47.982;11.516;2023-04-12T13:13:07;1.95;;;0.50;;
71106;SDS011;58763;47.982;11.516;2023-04-12T13:15:33;1.85;;;0.55;;
71106;SDS011;58763;47.982;11.516;2023-04-12T13:17:59;1.10;;;0.40;;
71106;SDS011;58763;47.982;11.516;2023-04-12T13:20:24;1.40;;;0.50;;
71106;SDS011;58763;47.982;11.516;2023-04-12T13:22:51;1.73;;;0.60;;
71106;SDS011;58763;47.982;11.516;2023-04-12T13:25:17;1.27;;;0.40;;
71106;SDS011;58763;47.982;11.516;2023-04-12T13:27:48;1.45;;;0.50;;
71106;SDS011;58763;47.982;11.516;2023-04-12T13:30:15;0.77;;;0.30;;
71106;SDS011;58763;47.982;11.516;2023-04-12T13:32:41;2.05;;;0.47;;
71106;SDS011;58763;47.982;11.516;2023-04-12T13:35:08;1.98;;;0.50;;
71106;SDS011;58763;47.982;11.516;2023-04-12T13:37:35;1.60;;;0.60;;
71106;SDS011;58763;47.982;11.516;2023-04-12T13:40:00;0.80;;;0.47;;
71106;SDS011;58763;47.982;11.516;2023-04-12T13:42:26;1.35;;;0.40;;
71106;SDS011;58763;47.982;11.516;2023-04-12T13:44:51;1.67;;;0.60;;
71106;SDS011;58763;47.982;11.516;2023-04-12T13:47:17;2.10;;;0.50;;
71106;SDS011;58763;47.982;11.516;2023-04-12T13:49:42;1.35;;;0.50;;
71106;SDS011;58763;47.982;11.516;2023-04-12T13:52:08;3.03;;;0.57;;
71106;SDS011;58763;47.982;11.516;2023-04-12T13:54:34;2.42;;;0.70;;
71106;SDS011;58763;47.982;11.516;2023-04-12T13:57:00;4.03;;;0.70;;
71106;SDS011;58763;47.982;11.516;2023-04-12T13:59:26;2.25;;;0.73;;
71106;SDS011;58763;47.982;11.516;2023-04-12T14:01:52;1.67;;;0.60;;
71106;SDS011;58763;47.982;11.516;2023-04-12T14:04:18;3.78;;;0.80;;
71106;SDS011;58763;47.982;11.516;2023-04-12T14:06:44;2.00;;;0.60;;
71106;SDS011;58763;47.982;11.516;2023-04-12T14:09:31;2.00;;;0.90;;
71106;SDS011;58763;47.982;11.516;2023-04-12T14:11:57;2.15;;;0.80;;
71106;SDS011;58763;47.982;11.516;2023-04-12T14:14:25;2.83;;;0.90;;
71106;SDS011;58763;47.982;11.516;2023-04-12T14:16:52;1.75;;;0.57;;
71106;SDS011;58763;47.982;11.516;2023-04-12T14:19:21;2.90;;;0.80;;
71106;SDS011;58763;47.982;11.516;2023-04-12T14:21:48;2.17;;;0.50;;
71106;SDS011;58763;47.982;11.516;2023-04-12T14:24:16;3.78;;;1.10;;
71106;SDS011;58763;47.982;11.516;2023-04-12T14:26:42;2.38;;;0.80;;
71106;SDS011;58763;47.982;11.516;2023-04-12T14:29:09;1.92;;;0.75;;
71106;SDS011;58763;47.982;11.516;2023-04-12T14:31:35;2.38;;;0.70;;
71106;SDS011;58763;47.982;11.516;2023-04-12T14:34:01;2.33;;;0.80;;
71106;SDS011;58763;47.982;11.516;2023-04-12T14:36:27;2.58;;;0.80;;
71106;SDS011;58763;47.982;11.516;2023-04-12T14:38:52;3.88;;;0.90;;
71106;SDS011;58763;47.982;11.516;2023-04-12T14:41:18;3.13;;;0.80;;
71106;SDS011;58763;47.982;11.516;2023-04-12T14:43:44;4.13;;;0.73;;
71106;SDS011;58763;47.982;11.516;2023-04-12T14:46:10;2.40;;;0.80;;
71106;SDS011;58763;47.982;11.516;2023-04-12T14:48:36;2.25;;;0.60;;
71106;SDS011;58763;47.982;11.516;2023-04-12T14:51:01;3.58;;;0.90;;
71106;SDS011;58763;47.982;11.516;2023-04-12T14:53:28;3.90;;;0.68;;
71106;SDS011;58763;47.982;11.516;2023-04-12T14:55:53;4.05;;;0.85;;
71106;SDS011;58763;47.982;11.516;2023-04-12T14:58:19;3.58;;;0.70;;
71106;SDS011;58763;47.982;11.516;2023-04-12T15:00:45;6.53;;;0.90;;
71106;SDS011;58763;47.982;11.516;2023-04-12T15:03:10;4.15;;;0.75;;
71106;SDS011;58763;47.982;11.516;2023-04-12T15:05:35;3.45;;;0.90;;
71106;SDS011;58763;47.982;11.516;2023-04-12T15:08:01;2.40;;;0.73;;
71106;SDS011;58763;47.982;11.516;2023-04-12T15:10:26;2.63;;;0.85;;
71106;SDS011;58763;47.982;11.516;2023-04-12T15:12:52;2.50;;;0.70;;
71106;SDS011;58763;47.982;11.516;2023-04-12T15:15:18;3.10;;;0.73;;
71106;SDS011;58763;47.982;11.516;2023-04-12T15:17:44;2.65;;;1.00;;